Weather at Halifax-Northampton Regional Airport

Public forecast

Using degrees Fahrenheit for public forecast. Weather courtesy of forecast.io.

Current aviation weather report (METAR) for Halifax-Northampton Regional Airport

2024/06/19 17:30 (retrieved 19 minutes ago)

KIXA 191730Z AUTO 14005KT 10SM SCT048 SCT060 29/21 A3033 RMK AO2

Closest aviation forecast (TAF) to Halifax-Northampton Regional Airport

Closest forecast is Rocky Mount Wilson Regional Airport, 31.0 nm (57.5 km) SSW.

2024/06/19 12:22 (retrieved 5 hours ago)

TAF KRWI 191120Z 1912/2012 08005KT P6SM SCT050 SCT250